sensor_id;sensor_type;location;lat;lon;timestamp;P1;durP1;ratioP1;P2;durP2;ratioP2
4758;SDS011;2393;50.560;12.636;2023-06-14T00:02:09;4.03;;;3.63;;
4758;SDS011;2393;50.560;12.636;2023-06-14T00:04:37;4.80;;;3.07;;
4758;SDS011;2393;50.560;12.636;2023-06-14T00:07:08;4.50;;;3.10;;
4758;SDS011;2393;50.560;12.636;2023-06-14T00:09:40;3.77;;;3.50;;
4758;SDS011;2393;50.560;12.636;2023-06-14T00:12:09;4.90;;;3.40;;
4758;SDS011;2393;50.560;12.636;2023-06-14T00:14:37;7.03;;;3.30;;
4758;SDS011;2393;50.560;12.636;2023-06-14T00:17:06;4.60;;;3.87;;
4758;SDS011;2393;50.560;12.636;2023-06-14T00:19:35;7.80;;;3.47;;
4758;SDS011;2393;50.560;12.636;2023-06-14T00:22:04;4.43;;;3.57;;
4758;SDS011;2393;50.560;12.636;2023-06-14T00:24:32;9.80;;;3.90;;
4758;SDS011;2393;50.560;12.636;2023-06-14T00:27:01;5.70;;;3.27;;
4758;SDS011;2393;50.560;12.636;2023-06-14T00:29:30;8.73;;;3.43;;
4758;SDS011;2393;50.560;12.636;2023-06-14T00:31:58;4.20;;;3.57;;
4758;SDS011;2393;50.560;12.636;2023-06-14T00:34:26;5.40;;;4.13;;
4758;SDS011;2393;50.560;12.636;2023-06-14T00:36:54;6.40;;;4.30;;
4758;SDS011;2393;50.560;12.636;2023-06-14T00:39:23;4.03;;;3.73;;
4758;SDS011;2393;50.560;12.636;2023-06-14T00:41:51;4.63;;;3.70;;
4758;SDS011;2393;50.560;12.636;2023-06-14T00:44:21;9.87;;;4.17;;
4758;SDS011;2393;50.560;12.636;2023-06-14T00:46:50;4.70;;;3.70;;
4758;SDS011;2393;50.560;12.636;2023-06-14T00:49:18;4.50;;;3.50;;
4758;SDS011;2393;50.560;12.636;2023-06-14T00:51:48;7.60;;;3.77;;
4758;SDS011;2393;50.560;12.636;2023-06-14T00:54:16;5.00;;;3.43;;
4758;SDS011;2393;50.560;12.636;2023-06-14T00:56:44;19.30;;;3.70;;
4758;SDS011;2393;50.560;12.636;2023-06-14T00:59:12;5.67;;;3.70;;
4758;SDS011;2393;50.560;12.636;2023-06-14T01:01:43;4.67;;;3.80;;
4758;SDS011;2393;50.560;12.636;2023-06-14T01:04:12;5.37;;;4.23;;
4758;SDS011;2393;50.560;12.636;2023-06-14T01:06:41;5.60;;;3.57;;
4758;SDS011;2393;50.560;12.636;2023-06-14T01:09:15;5.23;;;4.30;;
4758;SDS011;2393;50.560;12.636;2023-06-14T01:11:48;6.83;;;3.43;;
4758;SDS011;2393;50.560;12.636;2023-06-14T01:14:22;3.50;;;3.20;;
4758;SDS011;2393;50.560;12.636;2023-06-14T01:16:53;5.17;;;3.43;;
4758;SDS011;2393;50.560;12.636;2023-06-14T01:19:23;3.23;;;2.93;;
4758;SDS011;2393;50.560;12.636;2023-06-14T01:21:52;5.17;;;3.70;;
4758;SDS011;2393;50.560;12.636;2023-06-14T01:24:22;3.77;;;3.50;;
4758;SDS011;2393;50.560;12.636;2023-06-14T01:26:53;2.87;;;2.60;;
4758;SDS011;2393;50.560;12.636;2023-06-14T01:29:22;4.03;;;3.23;;
4758;SDS011;2393;50.560;12.636;2023-06-14T01:31:54;6.27;;;4.37;;
4758;SDS011;2393;50.560;12.636;2023-06-14T01:34:22;3.13;;;2.93;;
4758;SDS011;2393;50.560;12.636;2023-06-14T01:36:50;4.30;;;3.80;;
4758;SDS011;2393;50.560;12.636;2023-06-14T01:39:22;4.83;;;4.10;;
4758;SDS011;2393;50.560;12.636;2023-06-14T01:41:52;5.23;;;3.77;;
4758;SDS011;2393;50.560;12.636;2023-06-14T01:44:20;4.07;;;3.60;;
4758;SDS011;2393;50.560;12.636;2023-06-14T01:46:50;4.40;;;4.00;;
4758;SDS011;2393;50.560;12.636;2023-06-14T01:49:21;4.87;;;3.90;;
4758;SDS011;2393;50.560;12.636;2023-06-14T01:51:49;6.73;;;3.30;;
4758;SDS011;2393;50.560;12.636;2023-06-14T01:54:17;4.83;;;3.30;;
4758;SDS011;2393;50.560;12.636;2023-06-14T01:56:47;4.20;;;3.77;;
4758;SDS011;2393;50.560;12.636;2023-06-14T01:59:15;4.30;;;3.13;;
4758;SDS011;2393;50.560;12.636;2023-06-14T02:01:43;6.53;;;3.33;;
4758;SDS011;2393;50.560;12.636;2023-06-14T02:04:12;5.27;;;3.47;;
4758;SDS011;2393;50.560;12.636;2023-06-14T02:06:40;4.03;;;3.70;;
4758;SDS011;2393;50.560;12.636;2023-06-14T02:09:08;3.07;;;2.87;;
4758;SDS011;2393;50.560;12.636;2023-06-14T02:11:37;3.80;;;3.50;;
4758;SDS011;2393;50.560;12.636;2023-06-14T02:14:06;3.33;;;3.13;;
4758;SDS011;2393;50.560;12.636;2023-06-14T02:16:37;6.63;;;4.37;;
4758;SDS011;2393;50.560;12.636;2023-06-14T02:19:07;4.37;;;4.07;;
4758;SDS011;2393;50.560;12.636;2023-06-14T02:21:35;4.10;;;3.70;;
4758;SDS011;2393;50.560;12.636;2023-06-14T02:24:04;6.33;;;3.60;;
4758;SDS011;2393;50.560;12.636;2023-06-14T02:26:33;3.70;;;3.40;;
4758;SDS011;2393;50.560;12.636;2023-06-14T02:29:01;4.43;;;3.57;;
4758;SDS011;2393;50.560;12.636;2023-06-14T02:31:31;7.17;;;3.90;;
4758;SDS011;2393;50.560;12.636;2023-06-14T02:34:00;7.33;;;4.23;;
4758;SDS011;2393;50.560;12.636;2023-06-14T02:36:28;5.10;;;3.83;;
4758;SDS011;2393;50.560;12.636;2023-06-14T02:38:59;3.33;;;2.90;;
4758;SDS011;2393;50.560;12.636;2023-06-14T02:41:27;10.67;;;3.90;;
4758;SDS011;2393;50.560;12.636;2023-06-14T02:43:55;4.83;;;3.43;;
4758;SDS011;2393;50.560;12.636;2023-06-14T02:46:27;3.30;;;3.00;;
4758;SDS011;2393;50.560;12.636;2023-06-14T02:48:57;7.20;;;3.90;;
4758;SDS011;2393;50.560;12.636;2023-06-14T02:51:25;4.77;;;4.37;;
4758;SDS011;2393;50.560;12.636;2023-06-14T02:53:53;4.63;;;4.23;;
4758;SDS011;2393;50.560;12.636;2023-06-14T02:56:21;6.07;;;3.50;;
4758;SDS011;2393;50.560;12.636;2023-06-14T02:58:50;4.33;;;3.93;;
4758;SDS011;2393;50.560;12.636;2023-06-14T03:01:18;9.30;;;4.40;;
4758;SDS011;2393;50.560;12.636;2023-06-14T03:03:48;5.50;;;3.57;;
4758;SDS011;2393;50.560;12.636;2023-06-14T03:06:18;5.90;;;3.37;;
4758;SDS011;2393;50.560;12.636;2023-06-14T03:08:51;3.60;;;3.30;;
4758;SDS011;2393;50.560;12.636;2023-06-14T03:11:22;4.47;;;3.93;;
4758;SDS011;2393;50.560;12.636;2023-06-14T03:13:50;5.63;;;4.17;;
4758;SDS011;2393;50.560;12.636;2023-06-14T03:16:19;6.10;;;4.03;;
4758;SDS011;2393;50.560;12.636;2023-06-14T03:18:48;4.50;;;4.10;;
4758;SDS011;2393;50.560;12.636;2023-06-14T03:21:18;4.27;;;3.83;;
4758;SDS011;2393;50.560;12.636;2023-06-14T03:23:47;4.43;;;4.00;;
4758;SDS011;2393;50.560;12.636;2023-06-14T03:26:16;3.50;;;3.20;;
4758;SDS011;2393;50.560;12.636;2023-06-14T03:28:47;7.43;;;4.20;;
4758;SDS011;2393;50.560;12.636;2023-06-14T03:31:16;3.97;;;3.63;;
4758;SDS011;2393;50.560;12.636;2023-06-14T03:33:45;8.40;;;3.40;;
4758;SDS011;2393;50.560;12.636;2023-06-14T03:36:14;4.80;;;3.53;;
4758;SDS011;2393;50.560;12.636;2023-06-14T03:38:44;6.03;;;3.93;;
4758;SDS011;2393;50.560;12.636;2023-06-14T03:41:13;4.77;;;3.30;;
4758;SDS011;2393;50.560;12.636;2023-06-14T03:43:42;3.63;;;3.33;;
4758;SDS011;2393;50.560;12.636;2023-06-14T03:46:10;3.40;;;3.10;;
4758;SDS011;2393;50.560;12.636;2023-06-14T03:48:38;4.50;;;3.90;;
4758;SDS011;2393;50.560;12.636;2023-06-14T03:51:07;7.70;;;3.87;;
4758;SDS011;2393;50.560;12.636;2023-06-14T03:53:36;6.83;;;3.60;;
4758;SDS011;2393;50.560;12.636;2023-06-14T03:56:20;3.70;;;3.20;;
4758;SDS011;2393;50.560;12.636;2023-06-14T03:58:48;4.57;;;3.70;;
4758;SDS011;2393;50.560;12.636;2023-06-14T04:01:19;5.20;;;4.40;;
4758;SDS011;2393;50.560;12.636;2023-06-14T04:03:58;4.10;;;3.70;;
4758;SDS011;2393;50.560;12.636;2023-06-14T04:06:26;5.07;;;4.30;;
4758;SDS011;2393;50.560;12.636;2023-06-14T04:08:59;7.43;;;4.20;;
4758;SDS011;2393;50.560;12.636;2023-06-14T04:11:30;12.83;;;4.60;;
4758;SDS011;2393;50.560;12.636;2023-06-14T04:13:59;6.07;;;4.07;;
4758;SDS011;2393;50.560;12.636;2023-06-14T04:16:28;6.53;;;4.10;;
4758;SDS011;2393;50.560;12.636;2023-06-14T04:18:58;3.93;;;3.60;;
4758;SDS011;2393;50.560;12.636;2023-06-14T04:21:27;5.87;;;4.03;;
4758;SDS011;2393;50.560;12.636;2023-06-14T04:23:58;5.73;;;4.07;;
4758;SDS011;2393;50.560;12.636;2023-06-14T04:26:30;9.73;;;4.73;;
4758;SDS011;2393;50.560;12.636;2023-06-14T04:29:00;8.70;;;4.90;;
4758;SDS011;2393;50.560;12.636;2023-06-14T04:31:32;7.07;;;5.47;;
4758;SDS011;2393;50.560;12.636;2023-06-14T04:34:06;8.93;;;5.00;;
4758;SDS011;2393;50.560;12.636;2023-06-14T04:36:34;11.03;;;5.27;;
4758;SDS011;2393;50.560;12.636;2023-06-14T04:39:04;5.20;;;4.50;;
4758;SDS011;2393;50.560;12.636;2023-06-14T04:41:34;10.30;;;5.13;;
4758;SDS011;2393;50.560;12.636;2023-06-14T04:44:03;6.00;;;5.40;;
4758;SDS011;2393;50.560;12.636;2023-06-14T04:46:36;6.20;;;5.20;;
4758;SDS011;2393;50.560;12.636;2023-06-14T04:49:19;8.50;;;5.20;;
4758;SDS011;2393;50.560;12.636;2023-06-14T04:51:53;9.73;;;5.90;;
4758;SDS011;2393;50.560;12.636;2023-06-14T04:54:25;6.07;;;4.57;;
4758;SDS011;2393;50.560;12.636;2023-06-14T04:56:56;6.00;;;4.40;;
4758;SDS011;2393;50.560;12.636;2023-06-14T04:59:25;5.23;;;4.30;;
4758;SDS011;2393;50.560;12.636;2023-06-14T05:01:54;7.43;;;5.80;;
4758;SDS011;2393;50.560;12.636;2023-06-14T05:04:23;10.67;;;4.50;;
4758;SDS011;2393;50.560;12.636;2023-06-14T05:06:53;6.90;;;4.37;;
4758;SDS011;2393;50.560;12.636;2023-06-14T05:09:22;5.57;;;4.17;;
4758;SDS011;2393;50.560;12.636;2023-06-14T05:11:50;10.83;;;3.40;;
4758;SDS011;2393;50.560;12.636;2023-06-14T05:14:21;6.87;;;4.70;;
4758;SDS011;2393;50.560;12.636;2023-06-14T05:16:50;6.23;;;4.30;;
4758;SDS011;2393;50.560;12.636;2023-06-14T05:19:19;6.43;;;4.07;;
4758;SDS011;2393;50.560;12.636;2023-06-14T05:21:48;7.13;;;3.40;;
4758;SDS011;2393;50.560;12.636;2023-06-14T05:24:16;4.40;;;3.80;;
4758;SDS011;2393;50.560;12.636;2023-06-14T05:26:45;6.37;;;4.00;;
4758;SDS011;2393;50.560;12.636;2023-06-14T05:29:14;10.13;;;4.87;;
4758;SDS011;2393;50.560;12.636;2023-06-14T05:31:43;8.23;;;4.13;;
4758;SDS011;2393;50.560;12.636;2023-06-14T05:34:11;5.13;;;4.07;;
4758;SDS011;2393;50.560;12.636;2023-06-14T05:36:39;5.37;;;3.80;;
4758;SDS011;2393;50.560;12.636;2023-06-14T05:39:07;6.70;;;4.00;;
4758;SDS011;2393;50.560;12.636;2023-06-14T05:41:36;3.97;;;3.67;;
4758;SDS011;2393;50.560;12.636;2023-06-14T05:44:04;4.60;;;3.20;;
4758;SDS011;2393;50.560;12.636;2023-06-14T05:46:33;7.07;;;4.10;;
4758;SDS011;2393;50.560;12.636;2023-06-14T05:49:03;4.20;;;3.80;;
4758;SDS011;2393;50.560;12.636;2023-06-14T05:51:31;6.23;;;4.00;;
4758;SDS011;2393;50.560;12.636;2023-06-14T05:54:00;4.40;;;3.67;;
4758;SDS011;2393;50.560;12.636;2023-06-14T05:56:29;4.37;;;3.57;;
4758;SDS011;2393;50.560;12.636;2023-06-14T05:58:56;5.43;;;4.10;;
4758;SDS011;2393;50.560;12.636;2023-06-14T06:01:24;7.70;;;4.23;;
4758;SDS011;2393;50.560;12.636;2023-06-14T06:03:52;6.53;;;4.03;;
4758;SDS011;2393;50.560;12.636;2023-06-14T06:06:22;9.93;;;3.83;;
4758;SDS011;2393;50.560;12.636;2023-06-14T06:08:50;3.30;;;3.03;;
4758;SDS011;2393;50.560;12.636;2023-06-14T06:11:18;3.50;;;3.07;;
4758;SDS011;2393;50.560;12.636;2023-06-14T06:13:46;5.30;;;3.33;;
4758;SDS011;2393;50.560;12.636;2023-06-14T06:16:14;3.40;;;3.07;;
4758;SDS011;2393;50.560;12.636;2023-06-14T06:18:42;3.70;;;3.30;;
4758;SDS011;2393;50.560;12.636;2023-06-14T06:21:11;2.90;;;2.70;;
4758;SDS011;2393;50.560;12.636;2023-06-14T06:23:40;2.03;;;1.93;;
4758;SDS011;2393;50.560;12.636;2023-06-14T06:26:08;3.90;;;2.57;;
4758;SDS011;2393;50.560;12.636;2023-06-14T06:28:36;5.30;;;2.43;;
4758;SDS011;2393;50.560;12.636;2023-06-14T06:31:04;10.80;;;2.60;;
4758;SDS011;2393;50.560;12.636;2023-06-14T06:33:32;2.67;;;2.47;;
4758;SDS011;2393;50.560;12.636;2023-06-14T06:36:03;3.73;;;2.60;;
4758;SDS011;2393;50.560;12.636;2023-06-14T06:38:31;8.57;;;3.50;;
4758;SDS011;2393;50.560;12.636;2023-06-14T06:41:00;6.90;;;2.97;;
4758;SDS011;2393;50.560;12.636;2023-06-14T06:43:28;3.30;;;3.00;;
4758;SDS011;2393;50.560;12.636;2023-06-14T06:45:57;4.40;;;2.70;;
4758;SDS011;2393;50.560;12.636;2023-06-14T06:48:25;10.10;;;3.10;;
4758;SDS011;2393;50.560;12.636;2023-06-14T06:50:53;2.90;;;2.47;;
4758;SDS011;2393;50.560;12.636;2023-06-14T06:53:21;4.40;;;3.63;;
4758;SDS011;2393;50.560;12.636;2023-06-14T06:56:05;3.67;;;2.90;;
4758;SDS011;2393;50.560;12.636;2023-06-14T06:58:33;3.67;;;3.30;;
4758;SDS011;2393;50.560;12.636;2023-06-14T07:01:01;6.80;;;3.40;;
4758;SDS011;2393;50.560;12.636;2023-06-14T07:03:29;3.80;;;2.13;;
4758;SDS011;2393;50.560;12.636;2023-06-14T07:05:57;2.30;;;2.20;;
4758;SDS011;2393;50.560;12.636;2023-06-14T07:08:26;3.37;;;2.53;;
4758;SDS011;2393;50.560;12.636;2023-06-14T07:10:54;2.03;;;1.90;;
4758;SDS011;2393;50.560;12.636;2023-06-14T07:13:23;2.37;;;2.10;;
4758;SDS011;2393;50.560;12.636;2023-06-14T07:15:53;3.03;;;1.97;;
4758;SDS011;2393;50.560;12.636;2023-06-14T07:18:22;2.43;;;2.23;;
4758;SDS011;2393;50.560;12.636;2023-06-14T07:20:51;2.80;;;2.50;;
4758;SDS011;2393;50.560;12.636;2023-06-14T07:23:20;6.20;;;1.60;;
4758;SDS011;2393;50.560;12.636;2023-06-14T07:25:48;2.53;;;2.33;;
4758;SDS011;2393;50.560;12.636;2023-06-14T07:28:16;3.60;;;2.67;;
4758;SDS011;2393;50.560;12.636;2023-06-14T07:30:46;2.10;;;2.00;;
4758;SDS011;2393;50.560;12.636;2023-06-14T07:33:14;2.47;;;2.27;;
4758;SDS011;2393;50.560;12.636;2023-06-14T07:35:42;3.63;;;2.47;;
4758;SDS011;2393;50.560;12.636;2023-06-14T07:38:15;1.93;;;1.83;;
4758;SDS011;2393;50.560;12.636;2023-06-14T07:40:43;3.10;;;2.00;;
4758;SDS011;2393;50.560;12.636;2023-06-14T07:43:11;3.20;;;2.67;;
4758;SDS011;2393;50.560;12.636;2023-06-14T07:45:39;6.83;;;2.20;;
4758;SDS011;2393;50.560;12.636;2023-06-14T07:48:24;2.60;;;2.40;;
4758;SDS011;2393;50.560;12.636;2023-06-14T07:50:54;2.13;;;1.83;;
4758;SDS011;2393;50.560;12.636;2023-06-14T07:53:22;4.67;;;1.73;;
4758;SDS011;2393;50.560;12.636;2023-06-14T07:55:51;3.47;;;1.60;;
4758;SDS011;2393;50.560;12.636;2023-06-14T07:58:19;4.20;;;2.10;;
4758;SDS011;2393;50.560;12.636;2023-06-14T08:00:47;23.00;;;6.93;;
4758;SDS011;2393;50.560;12.636;2023-06-14T08:03:16;3.00;;;1.90;;
4758;SDS011;2393;50.560;12.636;2023-06-14T08:05:46;1.93;;;1.33;;
4758;SDS011;2393;50.560;12.636;2023-06-14T08:08:14;1.77;;;1.63;;
4758;SDS011;2393;50.560;12.636;2023-06-14T08:10:42;1.97;;;1.87;;
4758;SDS011;2393;50.560;12.636;2023-06-14T08:13:10;2.10;;;1.80;;
4758;SDS011;2393;50.560;12.636;2023-06-14T08:15:38;1.93;;;1.70;;
4758;SDS011;2393;50.560;12.636;2023-06-14T08:18:06;3.00;;;1.90;;
4758;SDS011;2393;50.560;12.636;2023-06-14T08:20:34;3.40;;;2.20;;
4758;SDS011;2393;50.560;12.636;2023-06-14T08:23:03;2.20;;;2.10;;
4758;SDS011;2393;50.560;12.636;2023-06-14T08:25:31;3.90;;;2.40;;
4758;SDS011;2393;50.560;12.636;2023-06-14T08:27:59;2.70;;;1.97;;
4758;SDS011;2393;50.560;12.636;2023-06-14T08:30:27;2.87;;;1.97;;
4758;SDS011;2393;50.560;12.636;2023-06-14T08:32:55;1.90;;;1.80;;
4758;SDS011;2393;50.560;12.636;2023-06-14T08:35:41;4.23;;;2.27;;
4758;SDS011;2393;50.560;12.636;2023-06-14T08:38:11;2.10;;;1.87;;
4758;SDS011;2393;50.560;12.636;2023-06-14T08:40:40;4.47;;;2.33;;
4758;SDS011;2393;50.560;12.636;2023-06-14T08:43:09;4.10;;;2.40;;
4758;SDS011;2393;50.560;12.636;2023-06-14T08:45:37;5.00;;;2.10;;
4758;SDS011;2393;50.560;12.636;2023-06-14T08:48:05;2.07;;;1.80;;
4758;SDS011;2393;50.560;12.636;2023-06-14T08:50:36;4.60;;;1.67;;
4758;SDS011;2393;50.560;12.636;2023-06-14T08:53:08;2.50;;;2.30;;
4758;SDS011;2393;50.560;12.636;2023-06-14T08:55:46;2.53;;;2.37;;
4758;SDS011;2393;50.560;12.636;2023-06-14T08:58:16;2.10;;;1.93;;
4758;SDS011;2393;50.560;12.636;2023-06-14T09:00:45;2.07;;;1.97;;
4758;SDS011;2393;50.560;12.636;2023-06-14T09:03:14;4.30;;;2.07;;
4758;SDS011;2393;50.560;12.636;2023-06-14T09:05:42;2.20;;;2.00;;
4758;SDS011;2393;50.560;12.636;2023-06-14T09:08:13;2.50;;;2.30;;
4758;SDS011;2393;50.560;12.636;2023-06-14T09:10:42;3.83;;;2.23;;
4758;SDS011;2393;50.560;12.636;2023-06-14T09:13:13;3.90;;;2.00;;
4758;SDS011;2393;50.560;12.636;2023-06-14T09:15:42;7.00;;;2.67;;
4758;SDS011;2393;50.560;12.636;2023-06-14T09:18:11;10.00;;;2.57;;
4758;SDS011;2393;50.560;12.636;2023-06-14T09:20:39;4.50;;;2.50;;
4758;SDS011;2393;50.560;12.636;2023-06-14T09:23:08;2.47;;;2.00;;
4758;SDS011;2393;50.560;12.636;2023-06-14T09:25:42;2.63;;;2.33;;
4758;SDS011;2393;50.560;12.636;2023-06-14T09:28:13;3.10;;;1.93;;
4758;SDS011;2393;50.560;12.636;2023-06-14T09:30:42;2.87;;;1.70;;
4758;SDS011;2393;50.560;12.636;2023-06-14T09:33:10;4.20;;;2.20;;
4758;SDS011;2393;50.560;12.636;2023-06-14T09:35:45;2.10;;;2.00;;
4758;SDS011;2393;50.560;12.636;2023-06-14T09:38:13;2.43;;;2.23;;
4758;SDS011;2393;50.560;12.636;2023-06-14T09:40:43;2.70;;;2.20;;
4758;SDS011;2393;50.560;12.636;2023-06-14T09:43:11;2.93;;;2.03;;
4758;SDS011;2393;50.560;12.636;2023-06-14T09:45:39;2.90;;;2.13;;
4758;SDS011;2393;50.560;12.636;2023-06-14T09:48:07;4.20;;;2.63;;
4758;SDS011;2393;50.560;12.636;2023-06-14T09:50:36;2.83;;;2.50;;
4758;SDS011;2393;50.560;12.636;2023-06-14T09:53:06;2.37;;;2.17;;
4758;SDS011;2393;50.560;12.636;2023-06-14T09:55:35;2.10;;;1.80;;
4758;SDS011;2393;50.560;12.636;2023-06-14T09:58:07;1.80;;;1.63;;
4758;SDS011;2393;50.560;12.636;2023-06-14T10:00:38;3.23;;;2.00;;
4758;SDS011;2393;50.560;12.636;2023-06-14T10:03:11;2.00;;;1.90;;
4758;SDS011;2393;50.560;12.636;2023-06-14T10:05:41;1.80;;;1.70;;
4758;SDS011;2393;50.560;12.636;2023-06-14T10:08:13;3.20;;;2.27;;
4758;SDS011;2393;50.560;12.636;2023-06-14T10:10:43;3.10;;;1.60;;
4758;SDS011;2393;50.560;12.636;2023-06-14T10:13:13;2.77;;;2.33;;
4758;SDS011;2393;50.560;12.636;2023-06-14T10:15:54;2.77;;;2.13;;
4758;SDS011;2393;50.560;12.636;2023-06-14T10:18:29;3.40;;;1.73;;
4758;SDS011;2393;50.560;12.636;2023-06-14T10:21:05;3.27;;;2.13;;
4758;SDS011;2393;50.560;12.636;2023-06-14T10:23:42;2.30;;;2.10;;
4758;SDS011;2393;50.560;12.636;2023-06-14T10:26:17;3.60;;;1.90;;
4758;SDS011;2393;50.560;12.636;2023-06-14T10:28:56;3.30;;;2.20;;
4758;SDS011;2393;50.560;12.636;2023-06-14T10:31:40;3.30;;;1.90;;
4758;SDS011;2393;50.560;12.636;2023-06-14T10:34:09;2.37;;;2.00;;
4758;SDS011;2393;50.560;12.636;2023-06-14T10:36:38;1.80;;;1.70;;
4758;SDS011;2393;50.560;12.636;2023-06-14T10:39:11;2.73;;;2.43;;
4758;SDS011;2393;50.560;12.636;2023-06-14T10:41:50;10.00;;;2.30;;
4758;SDS011;2393;50.560;12.636;2023-06-14T10:44:39;2.60;;;2.40;;
4758;SDS011;2393;50.560;12.636;2023-06-14T10:47:10;3.20;;;2.30;;
4758;SDS011;2393;50.560;12.636;2023-06-14T10:49:40;1.97;;;1.87;;
4758;SDS011;2393;50.560;12.636;2023-06-14T10:52:10;1.70;;;1.70;;
4758;SDS011;2393;50.560;12.636;2023-06-14T10:57:46;2.10;;;1.87;;
4758;SDS011;2393;50.560;12.636;2023-06-14T11:00:22;2.10;;;1.60;;
4758;SDS011;2393;50.560;12.636;2023-06-14T11:03:03;4.07;;;2.00;;
4758;SDS011;2393;50.560;12.636;2023-06-14T11:05:55;4.40;;;2.57;;
4758;SDS011;2393;50.560;12.636;2023-06-14T11:08:38;3.70;;;2.40;;
4758;SDS011;2393;50.560;12.636;2023-06-14T11:11:17;1.90;;;1.80;;
4758;SDS011;2393;50.560;12.636;2023-06-14T11:13:48;2.20;;;2.00;;
4758;SDS011;2393;50.560;12.636;2023-06-14T11:16:18;3.17;;;1.73;;
4758;SDS011;2393;50.560;12.636;2023-06-14T11:18:46;3.50;;;2.37;;
4758;SDS011;2393;50.560;12.636;2023-06-14T11:21:15;4.50;;;2.57;;
4758;SDS011;2393;50.560;12.636;2023-06-14T11:23:48;2.40;;;2.20;;
4758;SDS011;2393;50.560;12.636;2023-06-14T11:26:24;3.33;;;2.70;;
4758;SDS011;2393;50.560;12.636;2023-06-14T11:28:56;7.30;;;2.60;;
4758;SDS011;2393;50.560;12.636;2023-06-14T11:31:27;4.70;;;2.03;;
4758;SDS011;2393;50.560;12.636;2023-06-14T11:33:56;2.50;;;2.20;;
4758;SDS011;2393;50.560;12.636;2023-06-14T11:36:26;5.23;;;2.70;;
4758;SDS011;2393;50.560;12.636;2023-06-14T11:38:59;2.90;;;2.07;;
4758;SDS011;2393;50.560;12.636;2023-06-14T11:41:32;11.73;;;3.00;;
4758;SDS011;2393;50.560;12.636;2023-06-14T11:44:01;1.80;;;1.70;;
4758;SDS011;2393;50.560;12.636;2023-06-14T11:46:31;4.63;;;2.57;;
4758;SDS011;2393;50.560;12.636;2023-06-14T11:48:59;2.27;;;2.10;;
4758;SDS011;2393;50.560;12.636;2023-06-14T11:51:29;4.50;;;1.87;;
4758;SDS011;2393;50.560;12.636;2023-06-14T11:53:58;2.57;;;2.37;;
4758;SDS011;2393;50.560;12.636;2023-06-14T11:56:26;2.17;;;1.70;;
4758;SDS011;2393;50.560;12.636;2023-06-14T11:58:54;2.20;;;2.00;;
4758;SDS011;2393;50.560;12.636;2023-06-14T12:01:23;2.83;;;1.77;;
4758;SDS011;2393;50.560;12.636;2023-06-14T12:03:54;2.23;;;2.00;;
4758;SDS011;2393;50.560;12.636;2023-06-14T12:06:25;3.87;;;2.30;;
4758;SDS011;2393;50.560;12.636;2023-06-14T12:08:55;2.07;;;1.97;;
4758;SDS011;2393;50.560;12.636;2023-06-14T12:11:24;5.80;;;2.60;;
4758;SDS011;2393;50.560;12.636;2023-06-14T12:13:59;2.37;;;2.27;;
4758;SDS011;2393;50.560;12.636;2023-06-14T12:16:32;3.10;;;2.03;;
4758;SDS011;2393;50.560;12.636;2023-06-14T12:19:07;2.50;;;2.03;;
4758;SDS011;2393;50.560;12.636;2023-06-14T12:21:37;6.20;;;2.20;;
4758;SDS011;2393;50.560;12.636;2023-06-14T12:24:07;3.30;;;1.93;;
4758;SDS011;2393;50.560;12.636;2023-06-14T12:26:38;2.00;;;1.90;;
4758;SDS011;2393;50.560;12.636;2023-06-14T12:29:08;2.73;;;2.60;;
4758;SDS011;2393;50.560;12.636;2023-06-14T12:31:36;2.37;;;1.93;;
4758;SDS011;2393;50.560;12.636;2023-06-14T12:34:06;2.50;;;2.30;;
4758;SDS011;2393;50.560;12.636;2023-06-14T12:36:35;3.33;;;2.40;;
4758;SDS011;2393;50.560;12.636;2023-06-14T12:39:07;2.67;;;2.47;;
4758;SDS011;2393;50.560;12.636;2023-06-14T12:41:35;4.60;;;2.57;;
4758;SDS011;2393;50.560;12.636;2023-06-14T12:44:06;2.03;;;1.93;;
4758;SDS011;2393;50.560;12.636;2023-06-14T12:46:34;8.30;;;2.43;;
4758;SDS011;2393;50.560;12.636;2023-06-14T12:49:03;3.23;;;2.03;;
4758;SDS011;2393;50.560;12.636;2023-06-14T12:51:33;4.00;;;2.30;;
4758;SDS011;2393;50.560;12.636;2023-06-14T12:54:01;5.53;;;1.97;;
4758;SDS011;2393;50.560;12.636;2023-06-14T12:56:29;4.30;;;2.10;;
4758;SDS011;2393;50.560;12.636;2023-06-14T12:58:57;2.53;;;2.43;;
4758;SDS011;2393;50.560;12.636;2023-06-14T13:01:25;1.60;;;1.60;;
4758;SDS011;2393;50.560;12.636;2023-06-14T13:03:53;2.60;;;2.40;;
4758;SDS011;2393;50.560;12.636;2023-06-14T13:06:21;3.70;;;2.13;;
4758;SDS011;2393;50.560;12.636;2023-06-14T13:08:52;6.70;;;2.87;;
4758;SDS011;2393;50.560;12.636;2023-06-14T13:11:21;2.10;;;2.00;;
4758;SDS011;2393;50.560;12.636;2023-06-14T13:13:49;1.60;;;1.50;;
4758;SDS011;2393;50.560;12.636;2023-06-14T13:16:17;1.93;;;1.83;;
4758;SDS011;2393;50.560;12.636;2023-06-14T13:18:45;1.90;;;1.80;;
4758;SDS011;2393;50.560;12.636;2023-06-14T13:21:13;6.53;;;1.90;;
4758;SDS011;2393;50.560;12.636;2023-06-14T13:23:41;2.40;;;1.50;;
4758;SDS011;2393;50.560;12.636;2023-06-14T13:26:11;1.60;;;1.50;;
4758;SDS011;2393;50.560;12.636;2023-06-14T13:28:39;1.90;;;1.80;;
4758;SDS011;2393;50.560;12.636;2023-06-14T13:31:08;1.27;;;1.27;;
4758;SDS011;2393;50.560;12.636;2023-06-14T13:33:36;3.07;;;1.80;;
4758;SDS011;2393;50.560;12.636;2023-06-14T13:36:04;2.87;;;2.17;;
4758;SDS011;2393;50.560;12.636;2023-06-14T13:38:32;2.30;;;1.83;;
4758;SDS011;2393;50.560;12.636;2023-06-14T13:41:00;1.90;;;1.40;;
4758;SDS011;2393;50.560;12.636;2023-06-14T13:43:29;2.03;;;1.30;;
4758;SDS011;2393;50.560;12.636;2023-06-14T13:45:57;3.13;;;1.47;;
4758;SDS011;2393;50.560;12.636;2023-06-14T13:48:25;2.17;;;2.07;;
4758;SDS011;2393;50.560;12.636;2023-06-14T13:50:54;1.87;;;1.77;;
4758;SDS011;2393;50.560;12.636;2023-06-14T13:53:23;1.90;;;1.60;;
4758;SDS011;2393;50.560;12.636;2023-06-14T13:55:51;2.00;;;1.70;;
4758;SDS011;2393;50.560;12.636;2023-06-14T13:58:20;2.43;;;1.30;;
4758;SDS011;2393;50.560;12.636;2023-06-14T14:00:51;2.63;;;1.57;;
4758;SDS011;2393;50.560;12.636;2023-06-14T14:03:19;6.10;;;1.50;;
4758;SDS011;2393;50.560;12.636;2023-06-14T14:05:47;3.10;;;1.80;;
4758;SDS011;2393;50.560;12.636;2023-06-14T14:08:15;1.77;;;1.63;;
4758;SDS011;2393;50.560;12.636;2023-06-14T14:10:43;2.00;;;1.90;;
4758;SDS011;2393;50.560;12.636;2023-06-14T14:13:12;5.10;;;2.20;;
4758;SDS011;2393;50.560;12.636;2023-06-14T14:15:40;3.43;;;1.80;;
4758;SDS011;2393;50.560;12.636;2023-06-14T14:18:10;2.00;;;1.90;;
4758;SDS011;2393;50.560;12.636;2023-06-14T14:20:38;4.60;;;2.37;;
4758;SDS011;2393;50.560;12.636;2023-06-14T14:23:06;2.73;;;2.53;;
4758;SDS011;2393;50.560;12.636;2023-06-14T14:25:34;2.20;;;2.10;;
4758;SDS011;2393;50.560;12.636;2023-06-14T14:28:02;5.03;;;2.30;;
4758;SDS011;2393;50.560;12.636;2023-06-14T14:30:30;2.50;;;2.30;;
4758;SDS011;2393;50.560;12.636;2023-06-14T14:32:59;2.07;;;1.97;;
4758;SDS011;2393;50.560;12.636;2023-06-14T14:35:28;2.23;;;2.10;;
4758;SDS011;2393;50.560;12.636;2023-06-14T14:37:57;3.37;;;1.87;;
4758;SDS011;2393;50.560;12.636;2023-06-14T14:40:25;2.17;;;2.00;;
4758;SDS011;2393;50.560;12.636;2023-06-14T14:42:53;4.57;;;2.03;;
4758;SDS011;2393;50.560;12.636;2023-06-14T14:45:21;2.03;;;1.90;;
4758;SDS011;2393;50.560;12.636;2023-06-14T14:47:49;5.83;;;2.03;;
4758;SDS011;2393;50.560;12.636;2023-06-14T14:50:20;2.30;;;2.10;;
4758;SDS011;2393;50.560;12.636;2023-06-14T14:52:50;2.13;;;2.03;;
4758;SDS011;2393;50.560;12.636;2023-06-14T14:55:18;4.10;;;2.13;;
4758;SDS011;2393;50.560;12.636;2023-06-14T14:57:46;1.80;;;1.70;;
4758;SDS011;2393;50.560;12.636;2023-06-14T15:00:14;3.70;;;1.90;;
4758;SDS011;2393;50.560;12.636;2023-06-14T15:02:44;2.07;;;1.87;;
4758;SDS011;2393;50.560;12.636;2023-06-14T15:05:12;1.97;;;1.87;;
4758;SDS011;2393;50.560;12.636;2023-06-14T15:07:40;3.80;;;2.20;;
4758;SDS011;2393;50.560;12.636;2023-06-14T15:10:09;2.47;;;1.93;;
4758;SDS011;2393;50.560;12.636;2023-06-14T15:12:37;1.87;;;1.77;;
4758;SDS011;2393;50.560;12.636;2023-06-14T15:15:05;5.20;;;1.80;;
4758;SDS011;2393;50.560;12.636;2023-06-14T15:17:35;1.70;;;1.60;;
4758;SDS011;2393;50.560;12.636;2023-06-14T15:20:04;4.70;;;1.80;;